createdAt,value
2019-02-06T00:00:33.738Z,5.91
2019-02-06T00:03:00.047Z,5.97
2019-02-06T00:05:26.362Z,5.83
2019-02-06T00:07:52.666Z,5.72
2019-02-06T00:10:18.995Z,5.83
2019-02-06T00:12:45.308Z,5.82
2019-02-06T00:15:11.601Z,5.81
2019-02-06T00:17:39.372Z,5.74
2019-02-06T00:20:04.201Z,5.71
2019-02-06T00:22:30.544Z,5.73
2019-02-06T00:24:56.871Z,5.66
2019-02-06T00:27:23.180Z,5.65
2019-02-06T00:29:49.490Z,5.64
2019-02-06T00:32:15.943Z,5.55
2019-02-06T00:34:42.252Z,5.68
2019-02-06T00:37:08.696Z,5.69
2019-02-06T00:39:34.927Z,5.68
2019-02-06T00:42:01.242Z,5.64
2019-02-06T00:44:27.548Z,5.61
2019-02-06T00:46:53.864Z,5.52
2019-02-06T00:49:20.174Z,5.60
2019-02-06T00:51:46.487Z,5.66
2019-02-06T00:54:12.790Z,5.79
2019-02-06T00:56:39.101Z,5.68
2019-02-06T00:59:05.404Z,5.61
2019-02-06T01:01:31.711Z,5.59
2019-02-06T01:03:58.024Z,5.55
2019-02-06T01:06:24.329Z,5.56
2019-02-06T01:08:50.649Z,5.57
2019-02-06T01:11:16.952Z,5.54
2019-02-06T01:13:43.260Z,5.46
2019-02-06T01:16:09.573Z,5.48
2019-02-06T01:18:35.885Z,5.39
2019-02-06T01:21:02.192Z,5.46
2019-02-06T01:23:28.503Z,5.49
2019-02-06T01:25:54.818Z,5.42
2019-02-06T01:28:21.136Z,5.41
2019-02-06T01:30:47.448Z,5.40
2019-02-06T01:33:13.761Z,5.17
2019-02-06T01:35:49.610Z,5.09
2019-02-06T01:38:06.378Z,5.02
2019-02-06T01:40:32.691Z,5.00
2019-02-06T01:42:58.995Z,5.00
2019-02-06T01:45:25.297Z,4.97
2019-02-06T01:47:51.608Z,4.99
2019-02-06T01:50:17.920Z,4.96
2019-02-06T01:52:44.227Z,5.12
2019-02-06T01:55:10.539Z,5.12
2019-02-06T01:57:36.846Z,5.11
2019-02-06T02:00:03.152Z,5.05
2019-02-06T02:02:29.463Z,4.95
2019-02-06T02:04:55.771Z,4.98
2019-02-06T02:07:22.073Z,4.97
2019-02-06T02:09:48.388Z,4.87
2019-02-06T02:12:14.696Z,4.78
2019-02-06T02:14:41.019Z,4.78
2019-02-06T02:17:07.324Z,4.87
2019-02-06T02:19:33.628Z,4.78
2019-02-06T02:21:59.935Z,4.73
2019-02-06T02:24:26.251Z,4.84
2019-02-06T02:26:52.561Z,4.86
2019-02-06T02:29:18.880Z,4.86
2019-02-06T02:31:45.181Z,4.85
2019-02-06T02:34:11.494Z,4.81
2019-02-06T02:36:37.811Z,4.83
2019-02-06T02:39:04.117Z,4.78
2019-02-06T02:41:30.424Z,4.83
2019-02-06T02:43:56.774Z,4.98
2019-02-06T02:46:23.047Z,5.13
2019-02-06T02:48:49.360Z,5.05
2019-02-06T02:51:15.670Z,4.97
2019-02-06T02:53:41.986Z,5.01
2019-02-06T02:56:08.293Z,5.00
2019-02-06T02:58:34.609Z,4.86
2019-02-06T03:01:00.922Z,4.84
2019-02-06T03:03:27.227Z,4.91
2019-02-06T03:06:08.778Z,5.05
2019-02-06T03:08:35.078Z,4.93
2019-02-06T03:11:01.373Z,4.86
2019-02-06T03:13:27.678Z,4.78
2019-02-06T03:15:53.983Z,4.71
2019-02-06T03:18:20.325Z,4.69
2019-02-06T03:20:46.628Z,4.69
2019-02-06T03:23:12.965Z,4.79
2019-02-06T03:25:39.290Z,4.79
2019-02-06T03:28:05.600Z,4.72
2019-02-06T03:30:31.902Z,4.68
2019-02-06T03:32:58.196Z,4.64
2019-02-06T03:35:24.488Z,4.59
2019-02-06T03:37:50.802Z,4.77
2019-02-06T03:40:17.126Z,4.85
2019-02-06T03:42:43.418Z,4.88
2019-02-06T03:45:09.755Z,4.83
2019-02-06T03:47:36.055Z,4.74
2019-02-06T03:50:02.354Z,4.63
2019-02-06T03:52:28.711Z,4.60
2019-02-06T03:54:55.043Z,4.56
2019-02-06T03:57:21.317Z,4.47
2019-02-06T03:59:47.656Z,4.40
2019-02-06T04:02:13.953Z,4.30
2019-02-06T04:04:40.246Z,4.39
2019-02-06T04:07:06.539Z,4.39
2019-02-06T04:09:32.832Z,4.29
2019-02-06T04:11:59.133Z,4.20
2019-02-06T04:14:25.459Z,4.18
2019-02-06T04:16:51.745Z,4.18
2019-02-06T04:19:18.062Z,4.14
2019-02-06T04:21:44.375Z,4.11
2019-02-06T04:24:10.680Z,4.09
2019-02-06T04:26:37.006Z,4.09
2019-02-06T04:29:03.296Z,4.10
2019-02-06T04:31:29.609Z,4.15
2019-02-06T04:33:55.898Z,4.26
2019-02-06T04:36:22.232Z,4.28
2019-02-06T04:38:48.542Z,4.22
2019-02-06T04:41:14.877Z,4.22
2019-02-06T04:43:41.203Z,4.16
2019-02-06T04:46:07.506Z,4.11
2019-02-06T04:48:33.883Z,4.08
2019-02-06T04:51:00.234Z,4.11
2019-02-06T04:53:26.564Z,4.24
2019-02-06T04:55:52.877Z,4.29
2019-02-06T04:58:19.171Z,4.29
2019-02-06T05:00:45.549Z,4.28
2019-02-06T05:03:11.822Z,4.22
2019-02-06T05:05:38.135Z,4.22
2019-02-06T05:08:04.499Z,4.36
2019-02-06T05:10:30.874Z,4.37
2019-02-06T05:12:57.186Z,4.33
2019-02-06T05:15:23.499Z,4.36
2019-02-06T05:17:49.864Z,4.40
2019-02-06T05:20:16.187Z,4.40
2019-02-06T05:22:42.492Z,4.32
2019-02-06T05:25:08.802Z,4.28
2019-02-06T05:27:35.123Z,4.42
2019-02-06T05:30:01.435Z,4.39
2019-02-06T05:32:27.746Z,4.32
2019-02-06T05:34:54.089Z,4.34
2019-02-06T05:37:31.772Z,4.36
2019-02-06T05:39:46.732Z,4.38
2019-02-06T05:42:13.026Z,4.32
2019-02-06T05:44:39.367Z,4.31
2019-02-06T05:47:05.666Z,4.63
2019-02-06T05:49:31.974Z,4.62
2019-02-06T05:51:58.290Z,4.48
2019-02-06T05:54:24.607Z,4.34
2019-02-06T05:56:50.918Z,4.27
2019-02-06T05:59:17.232Z,4.41
2019-02-06T06:01:43.611Z,4.44
2019-02-06T06:04:09.913Z,4.37
2019-02-06T06:06:36.221Z,4.37
2019-02-06T06:09:02.534Z,4.36
2019-02-06T06:11:28.845Z,4.35
2019-02-06T06:13:55.153Z,4.39
2019-02-06T06:16:21.455Z,4.48
2019-02-06T06:18:47.793Z,4.43
2019-02-06T06:21:14.104Z,4.31
2019-02-06T06:23:40.450Z,4.29
2019-02-06T06:26:06.786Z,4.44
2019-02-06T06:28:33.099Z,4.61
2019-02-06T06:30:59.429Z,4.47
2019-02-06T06:33:25.708Z,4.63
2019-02-06T06:35:52.024Z,4.79
2019-02-06T06:38:18.325Z,4.82
2019-02-06T06:40:44.720Z,4.73
2019-02-06T06:43:11.033Z,5.05
2019-02-06T06:45:37.314Z,5.70
2019-02-06T06:48:03.654Z,5.15
2019-02-06T06:50:29.992Z,4.99
2019-02-06T06:52:56.301Z,4.84
2019-02-06T06:55:22.623Z,4.74
2019-02-06T06:57:48.924Z,4.70
2019-02-06T07:00:15.284Z,4.75
2019-02-06T07:02:41.631Z,4.83
2019-02-06T07:05:07.978Z,4.84
2019-02-06T07:07:34.317Z,4.65
2019-02-06T07:10:00.638Z,4.66
2019-02-06T07:12:26.959Z,4.68
2019-02-06T07:14:53.253Z,4.82
2019-02-06T07:17:19.547Z,4.91
2019-02-06T07:19:45.842Z,4.96
2019-02-06T07:22:12.184Z,5.01
2019-02-06T07:24:38.496Z,5.03
2019-02-06T07:27:04.812Z,4.95
2019-02-06T07:29:31.195Z,4.84
2019-02-06T07:31:57.477Z,4.91
2019-02-06T07:34:23.782Z,4.88
2019-02-06T07:36:50.208Z,4.98
2019-02-06T07:39:16.511Z,5.37
2019-02-06T07:41:43.128Z,5.22
2019-02-06T07:44:09.439Z,5.09
2019-02-06T07:46:35.736Z,5.23
2019-02-06T07:49:02.071Z,5.20
2019-02-06T07:51:28.387Z,5.27
2019-02-06T07:53:54.776Z,5.11
2019-02-06T07:56:21.068Z,5.07
2019-02-06T07:58:47.385Z,5.23
2019-02-06T08:01:13.682Z,5.26
2019-02-06T08:03:39.998Z,5.17
2019-02-06T08:06:06.290Z,5.16
2019-02-06T08:08:36.132Z,5.10
2019-02-06T08:10:58.913Z,4.81
2019-02-06T08:13:25.218Z,4.86
2019-02-06T08:15:51.578Z,5.07
2019-02-06T08:18:17.847Z,5.34
2019-02-06T08:20:44.237Z,5.34
2019-02-06T08:23:10.554Z,5.38
2019-02-06T08:25:36.881Z,5.59
2019-02-06T08:28:03.299Z,5.61
2019-02-06T08:30:29.592Z,5.58
2019-02-06T08:32:55.900Z,5.75
2019-02-06T08:35:22.207Z,5.59
2019-02-06T08:37:48.491Z,5.61
2019-02-06T08:40:14.795Z,5.54
2019-02-06T08:42:41.117Z,5.85
2019-02-06T08:45:07.416Z,5.81
2019-02-06T08:47:33.722Z,5.86
2019-02-06T08:50:00.025Z,5.89
2019-02-06T08:52:26.335Z,5.74
2019-02-06T08:54:52.658Z,5.92
2019-02-06T08:57:18.970Z,5.98
2019-02-06T08:59:45.284Z,5.90
2019-02-06T09:02:11.589Z,6.00
2019-02-06T09:04:37.882Z,6.13
2019-02-06T09:07:04.171Z,6.09
2019-02-06T09:09:30.495Z,6.11
2019-02-06T09:11:56.799Z,6.01
2019-02-06T09:14:23.097Z,6.11
2019-02-06T09:16:49.414Z,6.00
2019-02-06T09:19:15.707Z,6.01
2019-02-06T09:21:42.003Z,6.19
2019-02-06T09:24:08.310Z,6.39
2019-02-06T09:26:36.245Z,6.36
2019-02-06T09:29:00.917Z,6.15
2019-02-06T09:31:27.244Z,5.97
2019-02-06T09:33:53.548Z,6.01
2019-02-06T09:36:19.862Z,6.18
2019-02-06T09:38:46.193Z,6.18
2019-02-06T09:41:12.503Z,5.95
2019-02-06T09:43:38.817Z,5.79
2019-02-06T09:46:05.144Z,5.88
2019-02-06T09:48:31.451Z,5.86
2019-02-06T09:50:57.759Z,5.80
2019-02-06T09:53:24.151Z,5.80
2019-02-06T09:55:53.171Z,6.00
2019-02-06T09:58:16.732Z,5.94
2019-02-06T10:00:43.033Z,5.99
2019-02-06T10:03:09.329Z,5.98
2019-02-06T10:05:35.650Z,6.15
2019-02-06T10:08:01.929Z,6.20
2019-02-06T10:10:28.235Z,6.04
2019-02-06T10:12:54.531Z,5.84
2019-02-06T10:15:20.829Z,5.82
2019-02-06T10:17:47.142Z,5.78
2019-02-06T10:20:13.452Z,5.88
2019-02-06T10:22:39.802Z,5.76
2019-02-06T10:25:06.098Z,5.75
2019-02-06T10:27:32.397Z,5.90
2019-02-06T10:29:58.719Z,5.84
2019-02-06T10:32:25.039Z,6.06
2019-02-06T10:34:51.326Z,5.87
2019-02-06T10:37:17.626Z,6.01
2019-02-06T10:39:43.964Z,5.85
2019-02-06T10:42:10.293Z,5.82
2019-02-06T10:44:36.603Z,6.10
2019-02-06T10:47:02.918Z,6.08
2019-02-06T10:49:29.236Z,5.95
2019-02-06T10:51:55.536Z,5.88
2019-02-06T10:54:21.838Z,5.99
2019-02-06T10:56:48.158Z,5.95
2019-02-06T10:59:14.462Z,6.06
2019-02-06T11:01:40.800Z,6.10
2019-02-06T11:04:07.102Z,6.09
2019-02-06T11:06:33.418Z,6.03
2019-02-06T11:08:59.803Z,5.99
2019-02-06T11:11:26.112Z,6.13
2019-02-06T11:13:52.616Z,5.94
2019-02-06T11:16:21.072Z,5.76
2019-02-06T11:18:45.318Z,5.86
2019-02-06T11:21:11.779Z,5.73
2019-02-06T11:23:38.102Z,5.55
2019-02-06T11:26:04.394Z,5.54
2019-02-06T11:28:30.695Z,5.57
2019-02-06T11:30:57.330Z,5.53
2019-02-06T11:33:23.328Z,5.50
2019-02-06T11:35:49.636Z,5.63
2019-02-06T11:38:15.956Z,5.70
2019-02-06T11:40:42.269Z,5.65
2019-02-06T11:43:08.576Z,5.67
2019-02-06T11:45:34.888Z,5.60
2019-02-06T11:48:01.200Z,5.37
2019-02-06T11:50:27.513Z,5.29
2019-02-06T11:52:53.815Z,5.24
2019-02-06T11:55:20.139Z,5.29
2019-02-06T11:57:46.445Z,5.36
2019-02-06T12:00:12.775Z,5.32
2019-02-06T12:02:39.086Z,5.39
2019-02-06T12:05:05.393Z,5.33
2019-02-06T12:07:31.765Z,5.37
2019-02-06T12:10:09.034Z,5.39
2019-02-06T12:12:24.380Z,5.30
2019-02-06T12:14:50.682Z,5.29
2019-02-06T12:17:16.995Z,5.34
2019-02-06T12:19:43.308Z,5.34
2019-02-06T12:22:09.621Z,5.30
2019-02-06T12:24:35.924Z,5.28
2019-02-06T12:27:02.242Z,5.09
2019-02-06T12:29:28.572Z,5.01
2019-02-06T12:31:54.877Z,5.03
2019-02-06T12:34:23.494Z,5.06
2019-02-06T12:36:49.794Z,5.19
2019-02-06T12:39:16.109Z,5.26
2019-02-06T12:41:42.451Z,5.43
2019-02-06T12:44:08.843Z,5.37
2019-02-06T12:46:35.155Z,5.28
2019-02-06T12:49:01.490Z,5.47
2019-02-06T12:51:27.796Z,5.43
2019-02-06T12:53:54.101Z,5.49
2019-02-06T12:56:20.201Z,5.48
2019-02-06T12:58:46.489Z,5.34
2019-02-06T13:01:12.797Z,5.38
2019-02-06T13:03:39.111Z,5.41
2019-02-06T13:06:05.429Z,5.44
2019-02-06T13:08:31.739Z,5.48
2019-02-06T13:10:58.053Z,5.62
2019-02-06T13:13:24.371Z,5.49
2019-02-06T13:15:50.687Z,5.47
2019-02-06T13:18:17.003Z,5.46
2019-02-06T13:20:43.307Z,5.44
2019-02-06T13:23:09.635Z,5.42
2019-02-06T13:25:35.941Z,5.45
2019-02-06T13:28:02.250Z,5.42
2019-02-06T13:30:28.571Z,5.43
2019-02-06T13:32:54.880Z,5.44
2019-02-06T13:35:21.183Z,5.37
2019-02-06T13:37:48.495Z,5.27
2019-02-06T13:40:14.808Z,5.26
2019-02-06T13:42:41.125Z,5.24
2019-02-06T13:45:07.441Z,5.23
2019-02-06T13:47:33.745Z,5.15
2019-02-06T13:50:00.187Z,5.18
2019-02-06T13:52:26.387Z,5.12
2019-02-06T13:54:52.693Z,5.08
2019-02-06T13:57:19.016Z,5.07
2019-02-06T13:59:45.325Z,5.03
2019-02-06T14:02:11.632Z,5.05
2019-02-06T14:04:37.937Z,5.08
2019-02-06T14:07:04.264Z,5.06
2019-02-06T14:09:30.564Z,5.13
2019-02-06T14:11:56.877Z,5.13
2019-02-06T14:14:23.182Z,5.02
2019-02-06T14:16:49.549Z,5.04
2019-02-06T14:19:15.866Z,4.93
2019-02-06T14:21:42.174Z,4.89
2019-02-06T14:24:08.544Z,4.87
2019-02-06T14:26:34.849Z,4.85
2019-02-06T14:29:01.255Z,4.74
2019-02-06T14:31:31.350Z,4.63
2019-02-06T14:33:56.442Z,4.52
2019-02-06T14:36:22.768Z,4.48
2019-02-06T14:38:49.139Z,4.47
2019-02-06T14:41:15.561Z,4.31
2019-02-06T14:43:41.811Z,4.17
2019-02-06T14:46:08.116Z,4.01
2019-02-06T14:48:34.427Z,3.65
2019-02-06T14:51:00.731Z,3.43
2019-02-06T14:53:27.050Z,3.38
2019-02-06T14:55:53.415Z,3.31
2019-02-06T14:58:19.718Z,3.25
2019-02-06T15:00:46.025Z,3.21
2019-02-06T15:03:12.333Z,3.15
2019-02-06T15:05:38.660Z,3.17
2019-02-06T15:08:04.975Z,3.08
2019-02-06T15:10:31.285Z,3.07
2019-02-06T15:12:57.598Z,2.99
2019-02-06T15:15:23.902Z,2.88
2019-02-06T15:17:50.215Z,3.02
2019-02-06T15:20:16.534Z,3.05
2019-02-06T15:22:42.840Z,2.88
2019-02-06T15:25:09.159Z,2.83
2019-02-06T15:27:35.471Z,2.86
2019-02-06T15:30:01.785Z,2.73
2019-02-06T15:32:28.094Z,2.58
2019-02-06T15:34:54.405Z,2.67
2019-02-06T15:37:20.718Z,2.71
2019-02-06T15:39:47.037Z,2.66
2019-02-06T15:42:13.353Z,2.59
2019-02-06T15:44:39.671Z,2.54
2019-02-06T15:47:05.972Z,2.59
2019-02-06T15:49:32.292Z,2.63
2019-02-06T15:51:58.601Z,2.56
2019-02-06T15:54:24.942Z,2.55
2019-02-06T15:56:51.225Z,2.60
2019-02-06T15:59:17.553Z,2.64
2019-02-06T16:01:43.881Z,2.66
2019-02-06T16:04:10.193Z,2.65
2019-02-06T16:06:36.510Z,2.67
2019-02-06T16:09:02.817Z,2.70
2019-02-06T16:11:29.124Z,2.68
2019-02-06T16:13:55.453Z,2.75
2019-02-06T16:16:21.761Z,2.71
2019-02-06T16:18:48.077Z,2.65
2019-02-06T16:21:14.384Z,2.63
2019-02-06T16:23:40.693Z,2.61
2019-02-06T16:26:07.022Z,2.65
2019-02-06T16:28:33.397Z,2.70
2019-02-06T16:30:59.645Z,2.66
2019-02-06T16:33:25.954Z,2.69
2019-02-06T16:35:52.264Z,2.79
2019-02-06T16:38:18.590Z,2.80
2019-02-06T16:40:44.912Z,2.73
2019-02-06T16:43:11.220Z,2.69
2019-02-06T16:45:37.528Z,2.63
2019-02-06T16:48:04.152Z,2.75
2019-02-06T16:50:30.828Z,2.80
2019-02-06T16:52:57.143Z,2.88
2019-02-06T16:55:23.713Z,2.92
2019-02-06T16:57:50.039Z,3.00
2019-02-06T17:00:16.354Z,2.95
2019-02-06T17:02:42.824Z,2.99
2019-02-06T17:05:09.145Z,3.01
2019-02-06T17:07:35.456Z,2.97
2019-02-06T17:10:01.768Z,2.88
2019-02-06T17:12:28.077Z,3.42
2019-02-06T17:14:54.396Z,3.82
2019-02-06T17:17:20.703Z,3.81
2019-02-06T17:19:47.013Z,3.85
2019-02-06T17:22:13.321Z,4.08
2019-02-06T17:24:39.631Z,4.36
2019-02-06T17:27:05.943Z,4.40
2019-02-06T17:29:32.249Z,4.27
2019-02-06T17:31:58.566Z,4.04
2019-02-06T17:34:24.905Z,4.14
2019-02-06T17:36:51.201Z,4.22
2019-02-06T17:39:24.290Z,4.34
2019-02-06T17:41:43.826Z,4.16
2019-02-06T17:44:12.651Z,3.67
2019-02-06T17:46:36.449Z,3.41
2019-02-06T17:49:02.764Z,3.35
2019-02-06T17:51:29.120Z,3.32
2019-02-06T17:53:55.462Z,3.17
2019-02-06T17:56:21.746Z,3.41
2019-02-06T17:58:48.945Z,3.56
2019-02-06T18:01:15.258Z,3.46
2019-02-06T18:03:41.569Z,3.50
2019-02-06T18:06:08.024Z,3.56
2019-02-06T18:08:34.434Z,3.82
2019-02-06T18:11:00.718Z,3.51
2019-02-06T18:13:27.029Z,3.61
2019-02-06T18:15:53.464Z,3.40
2019-02-06T18:18:19.792Z,3.35
2019-02-06T18:20:46.096Z,3.49
2019-02-06T18:23:12.468Z,3.50
2019-02-06T18:25:38.792Z,3.66
2019-02-06T18:28:05.097Z,3.62
2019-02-06T18:30:31.434Z,3.75
2019-02-06T18:32:57.745Z,3.73
2019-02-06T18:35:24.056Z,3.48
2019-02-06T18:37:50.367Z,3.37
2019-02-06T18:40:16.692Z,3.46
2019-02-06T18:42:43.000Z,3.35
2019-02-06T18:45:09.305Z,3.30
2019-02-06T18:47:35.626Z,3.30
2019-02-06T18:50:01.937Z,3.32
2019-02-06T18:52:28.253Z,3.28
2019-02-06T18:54:54.561Z,3.34
2019-02-06T18:57:20.873Z,3.34
2019-02-06T18:59:48.520Z,3.45
2019-02-06T19:02:13.516Z,3.55
2019-02-06T19:04:39.828Z,3.49
2019-02-06T19:07:06.193Z,3.38
2019-02-06T19:09:33.390Z,3.33
2019-02-06T19:11:59.719Z,3.37
2019-02-06T19:14:26.030Z,3.34
2019-02-06T19:16:52.346Z,3.35
2019-02-06T19:19:25.405Z,3.33
2019-02-06T19:21:45.144Z,3.14
2019-02-06T19:24:11.484Z,3.03
2019-02-06T19:26:37.809Z,3.17
2019-02-06T19:29:04.133Z,3.18
2019-02-06T19:31:30.872Z,3.24
2019-02-06T19:33:57.191Z,3.18
2019-02-06T19:36:23.513Z,3.09
2019-02-06T19:38:49.820Z,3.05
2019-02-06T19:41:16.139Z,3.01
2019-02-06T19:43:42.457Z,3.00
2019-02-06T19:46:08.773Z,2.88
2019-02-06T19:48:35.091Z,2.76
2019-02-06T19:51:01.403Z,2.75
2019-02-06T19:53:27.805Z,2.67
2019-02-06T19:55:54.043Z,2.59
2019-02-06T19:58:20.362Z,2.53
2019-02-06T20:00:49.692Z,2.49
2019-02-06T20:03:16.086Z,2.48
2019-02-06T20:05:42.366Z,2.42
2019-02-06T20:08:08.693Z,2.41
2019-02-06T20:10:35.009Z,2.39
2019-02-06T20:13:10.520Z,2.50
2019-02-06T20:15:27.675Z,2.43
2019-02-06T20:17:53.991Z,2.41
2019-02-06T20:20:20.374Z,2.49
2019-02-06T20:22:46.681Z,2.52
2019-02-06T20:25:12.994Z,2.85
2019-02-06T20:27:39.319Z,2.90
2019-02-06T20:30:05.635Z,3.03
2019-02-06T20:32:31.942Z,2.98
2019-02-06T20:34:58.255Z,2.80
2019-02-06T20:37:24.572Z,2.52
2019-02-06T20:39:50.891Z,2.28
2019-02-06T20:42:17.204Z,2.03
2019-02-06T20:44:43.528Z,1.91
2019-02-06T20:47:09.846Z,1.90
2019-02-06T20:49:36.163Z,1.97
2019-02-06T20:52:02.476Z,1.93
2019-02-06T20:54:28.821Z,1.83
2019-02-06T20:56:55.196Z,1.84
2019-02-06T20:59:21.550Z,1.83
2019-02-06T21:01:47.864Z,1.82
2019-02-06T21:04:14.171Z,1.77
2019-02-06T21:06:40.498Z,1.70
2019-02-06T21:09:06.802Z,1.63
2019-02-06T21:11:33.352Z,1.61
2019-02-06T21:13:59.621Z,1.68
2019-02-06T21:16:25.930Z,1.73
2019-02-06T21:18:52.354Z,1.74
2019-02-06T21:21:18.696Z,1.66
2019-02-06T21:23:45.148Z,1.73
2019-02-06T21:26:11.348Z,1.69
2019-02-06T21:28:37.663Z,1.64
2019-02-06T21:31:03.992Z,1.61
2019-02-06T21:33:30.309Z,1.64
2019-02-06T21:35:56.617Z,1.55
2019-02-06T21:38:22.941Z,1.56
2019-02-06T21:40:49.248Z,1.68
2019-02-06T21:43:15.560Z,1.75
2019-02-06T21:45:41.865Z,1.70
2019-02-06T21:48:08.183Z,1.73
2019-02-06T21:50:34.534Z,1.71
2019-02-06T21:53:00.851Z,1.65
2019-02-06T21:55:27.159Z,1.75
2019-02-06T21:57:53.486Z,1.79
2019-02-06T22:00:19.798Z,1.72
2019-02-06T22:02:46.114Z,1.73
2019-02-06T22:05:14.334Z,1.67
2019-02-06T22:07:38.755Z,1.68
2019-02-06T22:10:05.064Z,1.64
2019-02-06T22:12:31.376Z,1.74
2019-02-06T22:14:57.687Z,1.86
2019-02-06T22:17:23.996Z,1.74
2019-02-06T22:19:50.315Z,1.73
2019-02-06T22:22:16.624Z,1.65
2019-02-06T22:24:42.944Z,1.64
2019-02-06T22:27:09.249Z,1.67
2019-02-06T22:29:35.567Z,1.63
2019-02-06T22:32:01.875Z,1.79
2019-02-06T22:34:28.186Z,1.80
2019-02-06T22:36:54.502Z,1.75
2019-02-06T22:39:20.819Z,1.71
2019-02-06T22:41:47.129Z,1.77
2019-02-06T22:44:13.449Z,1.85
2019-02-06T22:46:39.810Z,2.03
2019-02-06T22:49:06.120Z,1.95
2019-02-06T22:51:32.428Z,1.87
2019-02-06T22:53:58.739Z,1.83
2019-02-06T22:56:25.062Z,1.87
2019-02-06T22:58:51.407Z,1.99
2019-02-06T23:01:17.718Z,2.12
2019-02-06T23:03:44.034Z,2.20
2019-02-06T23:06:10.346Z,2.07
2019-02-06T23:08:36.659Z,1.99
2019-02-06T23:11:02.961Z,1.99
2019-02-06T23:13:29.278Z,2.05
2019-02-06T23:15:55.589Z,2.07
2019-02-06T23:18:21.902Z,2.02
2019-02-06T23:20:48.222Z,2.05
2019-02-06T23:23:14.530Z,2.11
2019-02-06T23:25:43.117Z,2.12
2019-02-06T23:28:07.146Z,2.08
2019-02-06T23:30:33.462Z,2.08
2019-02-06T23:32:59.816Z,2.09
2019-02-06T23:35:26.098Z,2.09
2019-02-06T23:37:52.435Z,2.18
2019-02-06T23:40:19.166Z,2.18
2019-02-06T23:42:45.479Z,2.22
2019-02-06T23:45:11.862Z,2.26
2019-02-06T23:47:38.119Z,2.20
2019-02-06T23:50:04.430Z,2.17
2019-02-06T23:52:30.752Z,2.14
2019-02-06T23:54:57.057Z,2.12
2019-02-06T23:57:23.420Z,2.05
2019-02-06T23:59:49.682Z,2.04
